createdAt,value
2023-04-06T00:01:31.712Z,65.37
2023-04-06T00:09:54.804Z,65.38
2023-04-06T00:18:17.806Z,65.53
2023-04-06T00:26:40.950Z,65.44
2023-04-06T00:35:05.313Z,65.40
2023-04-06T00:43:28.440Z,65.38
2023-04-06T00:51:51.528Z,65.23
2023-04-06T01:00:15.663Z,65.29
2023-04-06T01:08:40.121Z,65.28
2023-04-06T01:17:15.670Z,65.52
2023-04-06T01:25:39.792Z,65.32
2023-04-06T01:34:05.169Z,65.45
2023-04-06T01:42:29.434Z,65.62
2023-04-06T01:50:55.128Z,65.53
2023-04-06T01:59:21.235Z,65.57
2023-04-06T02:07:44.596Z,65.41
2023-04-06T02:16:08.791Z,65.49
2023-04-06T02:24:31.982Z,65.50
2023-04-06T02:32:55.088Z,65.53
2023-04-06T02:41:18.935Z,65.71
2023-04-06T02:49:42.201Z,65.69
2023-04-06T02:58:06.565Z,65.64
2023-04-06T03:06:37.427Z,65.79
2023-04-06T03:15:09.081Z,65.74
2023-04-06T03:23:33.053Z,65.65
2023-04-06T03:31:57.592Z,65.62
2023-04-06T03:40:28.669Z,65.62
2023-04-06T03:48:51.759Z,65.68
2023-04-06T03:57:16.504Z,65.73
2023-04-06T04:05:39.564Z,65.64
2023-04-06T04:14:02.606Z,65.60
2023-04-06T04:22:25.889Z,65.60
2023-04-06T04:30:49.097Z,65.56
2023-04-06T04:39:13.320Z,65.54
2023-04-06T04:47:39.493Z,65.75
2023-04-06T04:56:03.752Z,65.66
2023-04-06T05:04:27.258Z,65.91
2023-04-06T05:12:51.716Z,65.87
2023-04-06T05:21:14.907Z,65.72
2023-04-06T05:29:48.065Z,65.88
2023-04-06T05:38:12.620Z,65.97
2023-04-06T05:46:36.001Z,65.95
2023-04-06T05:55:00.295Z,66.07
2023-04-06T06:03:23.886Z,66.22
2023-04-06T06:11:50.840Z,66.00
2023-04-06T06:20:14.965Z,66.20
2023-04-06T06:28:39.390Z,66.18
2023-04-06T06:37:03.313Z,66.21
2023-04-06T06:45:26.791Z,66.05
2023-04-06T06:53:50.246Z,66.26
2023-04-06T07:02:13.321Z,66.39
2023-04-06T07:10:36.526Z,66.11
2023-04-06T07:18:59.930Z,66.33
2023-04-06T07:27:23.629Z,66.28
2023-04-06T07:35:47.392Z,66.32
2023-04-06T07:44:10.996Z,66.43
2023-04-06T07:52:37.035Z,66.38
2023-04-06T08:01:03.150Z,66.22
2023-04-06T08:09:26.469Z,66.12
2023-04-06T08:17:49.546Z,66.16
2023-04-06T08:26:13.607Z,66.25
2023-04-06T08:34:36.845Z,66.30
2023-04-06T08:43:03.900Z,66.20
2023-04-06T08:51:29.225Z,66.27
2023-04-06T08:59:53.186Z,66.52
2023-04-06T09:08:16.368Z,66.48
2023-04-06T09:16:44.640Z,66.12
2023-04-06T09:25:11.019Z,66.30
2023-04-06T09:33:34.314Z,66.50
2023-04-06T09:41:57.782Z,66.37
2023-04-06T09:50:22.291Z,66.39
2023-04-06T09:58:50.548Z,66.47
2023-04-06T10:07:14.236Z,66.30
2023-04-06T10:15:39.662Z,66.66
2023-04-06T10:24:08.521Z,66.58
2023-04-06T10:32:37.254Z,66.60
2023-04-06T10:41:06.277Z,66.38
2023-04-06T10:49:29.244Z,66.39
2023-04-06T10:57:52.893Z,66.64
2023-04-06T11:06:27.876Z,66.61
2023-04-06T11:14:54.943Z,66.55
2023-04-06T11:23:25.525Z,66.48
2023-04-06T11:31:54.005Z,66.64
2023-04-06T11:40:21.846Z,66.75
2023-04-06T11:48:46.640Z,66.61
2023-04-06T11:57:10.456Z,66.84
2023-04-06T12:05:35.143Z,66.77
2023-04-06T12:13:58.301Z,66.91
2023-04-06T12:22:21.339Z,66.95
2023-04-06T12:30:45.275Z,66.99
2023-04-06T12:39:08.251Z,66.97
2023-04-06T12:47:31.247Z,67.12
2023-04-06T12:55:56.178Z,67.01
2023-04-06T13:04:19.136Z,66.99
2023-04-06T13:12:42.170Z,66.94
2023-04-06T13:21:07.028Z,67.14
2023-04-06T13:29:30.557Z,66.92
2023-04-06T13:37:53.729Z,66.93
2023-04-06T13:46:17.759Z,67.04
2023-04-06T13:54:40.954Z,67.31
2023-04-06T14:03:04.066Z,67.28
2023-04-06T14:11:27.563Z,67.24
2023-04-06T14:19:50.488Z,67.32
2023-04-06T14:28:13.643Z,67.24
2023-04-06T14:36:39.518Z,67.23
2023-04-06T14:45:02.616Z,67.58
2023-04-06T14:53:27.497Z,67.40
2023-04-06T15:01:50.476Z,67.47
2023-04-06T15:10:13.721Z,67.59
2023-04-06T15:18:36.830Z,67.66
2023-04-06T15:26:59.829Z,67.53
2023-04-06T15:35:23.128Z,67.66
2023-04-06T15:43:46.362Z,67.61
2023-04-06T15:52:09.527Z,67.81
2023-04-06T16:00:32.533Z,67.83
2023-04-06T16:08:55.482Z,67.74
2023-04-06T16:17:18.618Z,67.76
2023-04-06T16:25:42.584Z,68.00
2023-04-06T16:34:05.615Z,68.02
2023-04-06T16:42:28.642Z,68.17
2023-04-06T16:50:51.631Z,68.06
2023-04-06T16:59:14.628Z,67.98
2023-04-06T17:07:37.829Z,68.05
2023-04-06T17:16:01.763Z,68.10
2023-04-06T17:24:24.883Z,68.24
2023-04-06T17:32:48.402Z,68.29
2023-04-06T17:41:13.473Z,68.12
2023-04-06T17:49:36.691Z,68.43
2023-04-06T17:58:00.145Z,68.32
2023-04-06T18:06:25.589Z,68.47
2023-04-06T18:14:49.769Z,68.56
2023-04-06T18:23:13.155Z,68.57
2023-04-06T18:40:05.830Z,68.50
2023-04-06T18:48:31.266Z,68.57
2023-04-06T18:56:54.236Z,68.82
2023-04-06T19:05:18.651Z,69.03
2023-04-06T19:13:46.356Z,68.99
2023-04-06T19:22:11.442Z,68.85
2023-04-06T19:30:34.345Z,69.02
2023-04-06T19:38:58.993Z,68.92
2023-04-06T19:47:23.278Z,69.04
2023-04-06T19:55:46.731Z,69.10
2023-04-06T20:04:10.338Z,69.09
2023-04-06T20:12:33.822Z,69.24
2023-04-06T20:20:57.013Z,69.23
2023-04-06T20:29:19.989Z,69.23
2023-04-06T20:37:43.024Z,69.42
2023-04-06T20:46:07.471Z,69.49
2023-04-06T20:54:30.763Z,69.50
2023-04-06T21:02:53.879Z,69.45
2023-04-06T21:11:17.005Z,69.67
2023-04-06T21:19:40.274Z,69.57
2023-04-06T21:28:03.769Z,69.49
2023-04-06T21:36:27.117Z,69.52
2023-04-06T21:44:50.325Z,69.61
2023-04-06T21:53:13.241Z,69.86
2023-04-06T22:01:36.227Z,69.97
2023-04-06T22:09:59.632Z,69.88
2023-04-06T22:18:22.628Z,69.96
2023-04-06T22:26:45.986Z,69.90
2023-04-06T22:35:09.764Z,70.08
2023-04-06T22:43:32.726Z,70.06
2023-04-06T22:51:55.790Z,70.27
2023-04-06T23:00:19.455Z,70.35
2023-04-06T23:08:42.456Z,70.34
2023-04-06T23:17:05.769Z,70.24
2023-04-06T23:25:28.782Z,70.41
2023-04-06T23:33:51.843Z,70.27
2023-04-06T23:42:14.859Z,70.48
2023-04-06T23:50:38.040Z,70.59
2023-04-06T23:59:01.236Z,70.63
